createdAt,value
2017-06-01T00:01:04.701Z,9.86
2017-06-01T00:03:30.827Z,8.96
2017-06-01T00:05:59.261Z,9.00
2017-06-01T00:08:26.118Z,9.06
2017-06-01T00:10:53.374Z,9.12
2017-06-01T00:13:20.199Z,9.46
2017-06-01T00:15:48.520Z,8.22
2017-06-01T00:18:17.349Z,9.24
2017-06-01T00:20:46.165Z,9.02
2017-06-01T00:23:12.971Z,8.42
2017-06-01T00:25:39.847Z,9.70
2017-06-01T00:28:07.812Z,9.74
2017-06-01T00:30:34.095Z,9.18
2017-06-01T00:33:01.056Z,11.24
2017-06-01T00:35:28.043Z,9.08
2017-06-01T00:37:56.503Z,10.78
2017-06-01T00:40:22.660Z,10.28
2017-06-01T00:42:48.758Z,9.10
2017-06-01T00:45:15.609Z,10.40
2017-06-01T00:47:41.865Z,10.10
2017-06-01T00:50:08.681Z,10.00
2017-06-01T00:52:35.485Z,9.94
2017-06-01T00:55:01.654Z,9.00
2017-06-01T00:57:28.496Z,8.60
2017-06-01T00:59:55.266Z,9.62
2017-06-01T01:02:22.034Z,9.16
2017-06-01T01:04:48.844Z,9.92
2017-06-01T01:07:16.039Z,8.68
2017-06-01T01:09:43.028Z,10.20
2017-06-01T01:12:09.805Z,11.24
2017-06-01T01:14:36.208Z,11.24
2017-06-01T01:17:03.086Z,10.86
2017-06-01T01:19:29.946Z,11.22
2017-06-01T01:21:56.602Z,10.70
2017-06-01T01:24:23.527Z,10.36
2017-06-01T01:26:51.853Z,10.88
2017-06-01T01:29:18.778Z,10.82
2017-06-01T01:31:45.619Z,11.00
2017-06-01T01:34:12.469Z,10.68
2017-06-01T01:36:39.223Z,10.84
2017-06-01T01:39:06.000Z,11.32
2017-06-01T01:41:33.063Z,10.54
2017-06-01T01:43:59.855Z,9.60
2017-06-01T01:46:27.127Z,9.94
2017-06-01T01:48:53.556Z,9.62
2017-06-01T01:51:19.834Z,11.58
2017-06-01T01:53:46.841Z,9.76
2017-06-01T01:56:13.285Z,12.26
2017-06-01T01:58:40.080Z,10.46
2017-06-01T02:01:06.718Z,10.90
2017-06-01T02:03:33.008Z,11.92
2017-06-01T02:05:59.911Z,11.32
2017-06-01T02:08:26.693Z,11.76
2017-06-01T02:10:52.786Z,13.22
2017-06-01T02:13:19.641Z,10.30
2017-06-01T02:15:46.803Z,9.50
2017-06-01T02:18:14.871Z,10.00
2017-06-01T02:20:41.969Z,10.96
2017-06-01T02:23:09.057Z,10.32
2017-06-01T02:25:36.648Z,11.34
2017-06-01T02:28:03.747Z,10.62
2017-06-01T02:30:30.973Z,11.04
2017-06-01T02:32:57.141Z,14.72
2017-06-01T02:35:27.785Z,9.58
2017-06-01T02:37:54.620Z,10.86
2017-06-01T02:40:21.939Z,10.96
2017-06-01T02:42:49.488Z,12.16
2017-06-01T02:45:16.278Z,12.04
2017-06-01T02:47:42.600Z,10.76
2017-06-01T02:50:08.602Z,10.08
2017-06-01T02:52:35.573Z,10.18
2017-06-01T02:55:02.192Z,9.66
2017-06-01T02:57:30.693Z,10.62
2017-06-01T02:59:57.698Z,10.28
2017-06-01T03:02:25.057Z,11.76
2017-06-01T03:04:51.326Z,10.96
2017-06-01T03:07:19.058Z,12.02
2017-06-01T03:09:45.985Z,13.32
2017-06-01T03:12:12.126Z,10.92
2017-06-01T03:14:38.922Z,11.04
2017-06-01T03:17:05.960Z,11.72
2017-06-01T03:19:32.881Z,13.36
2017-06-01T03:22:00.691Z,11.48
2017-06-01T03:24:27.506Z,12.40
2017-06-01T03:26:54.463Z,11.80
2017-06-01T03:29:21.751Z,13.60
2017-06-01T03:31:47.924Z,13.00
2017-06-01T03:34:14.037Z,11.06
2017-06-01T03:36:42.192Z,12.34
2017-06-01T03:39:08.659Z,12.00
2017-06-01T03:41:36.266Z,11.94
2017-06-01T03:44:03.242Z,12.50
2017-06-01T03:46:30.914Z,11.62
2017-06-01T03:48:57.380Z,11.34
2017-06-01T03:51:24.832Z,12.68
2017-06-01T03:53:51.224Z,12.32
2017-06-01T03:56:18.074Z,12.82
2017-06-01T03:58:45.010Z,13.18
2017-06-01T04:01:11.686Z,12.90
2017-06-01T04:03:38.624Z,10.82
2017-06-01T04:06:05.542Z,12.58
2017-06-01T04:08:31.604Z,11.58
2017-06-01T04:10:59.267Z,13.04
2017-06-01T04:13:25.306Z,14.04
2017-06-01T04:15:53.167Z,13.12
2017-06-01T04:18:20.062Z,11.94
2017-06-01T04:20:48.126Z,12.68
2017-06-01T04:23:14.577Z,11.62
2017-06-01T04:25:41.406Z,14.04
2017-06-01T04:28:08.990Z,12.76
2017-06-01T04:30:35.861Z,11.94
2017-06-01T04:33:03.271Z,12.48
2017-06-01T04:35:30.938Z,12.46
2017-06-01T04:37:58.284Z,12.40
2017-06-01T04:40:25.052Z,12.56
2017-06-01T04:42:51.109Z,11.96
2017-06-01T04:45:17.323Z,12.38
2017-06-01T04:47:45.698Z,12.04
2017-06-01T04:50:12.585Z,11.22
2017-06-01T04:52:40.313Z,13.20
2017-06-01T04:55:07.221Z,12.98
2017-06-01T04:57:33.330Z,12.28
2017-06-01T05:00:00.373Z,14.12
2017-06-01T05:02:27.354Z,13.18
2017-06-01T05:04:54.824Z,13.56
2017-06-01T05:10:15.770Z,12.36
2017-06-01T05:12:43.403Z,13.18
2017-06-01T05:17:40.959Z,12.70
2017-06-01T05:20:07.925Z,14.36
2017-06-01T05:22:34.890Z,12.58
2017-06-01T05:25:01.703Z,12.32
2017-06-01T05:29:59.283Z,13.20
2017-06-01T05:32:26.905Z,12.14
2017-06-01T05:34:53.889Z,12.76
2017-06-01T05:37:20.704Z,12.88
2017-06-01T05:39:47.992Z,12.66
2017-06-01T05:42:15.769Z,12.20
2017-06-01T05:44:44.346Z,13.62
2017-06-01T05:47:10.437Z,11.70
2017-06-01T05:49:36.466Z,10.72
2017-06-01T05:52:03.259Z,12.04
2017-06-01T05:54:29.385Z,10.88
2017-06-01T05:56:56.903Z,11.74
2017-06-01T05:59:24.666Z,11.60
2017-06-01T06:01:51.438Z,15.38
2017-06-01T06:04:19.845Z,13.26
2017-06-01T06:06:48.552Z,15.70
2017-06-01T06:14:20.723Z,12.34
2017-06-01T06:19:19.256Z,14.16
2017-06-01T06:21:49.238Z,17.20
2017-06-01T06:24:16.167Z,16.88
2017-06-01T06:26:43.826Z,11.18
2017-06-01T06:29:10.037Z,11.40
2017-06-01T06:31:37.794Z,12.02
2017-06-01T06:34:05.770Z,13.54
2017-06-01T06:36:32.775Z,11.76
2017-06-01T06:38:59.621Z,14.12
2017-06-01T06:41:41.503Z,12.72
2017-06-01T06:44:10.216Z,11.56
2017-06-01T06:46:38.227Z,12.20
2017-06-01T06:49:05.692Z,12.88
2017-06-01T06:51:34.259Z,12.30
2017-06-01T06:54:01.734Z,12.28
2017-06-01T06:56:31.261Z,12.82
2017-06-01T06:58:59.583Z,13.14
2017-06-01T07:01:28.478Z,13.04
2017-06-01T07:03:55.883Z,14.22
2017-06-01T07:06:23.615Z,12.86
2017-06-01T07:08:50.749Z,12.58
2017-06-01T07:11:18.516Z,12.02
2017-06-01T07:13:48.650Z,9.66
2017-06-01T07:16:17.336Z,11.50
2017-06-01T07:24:01.074Z,11.36
2017-06-01T07:29:00.208Z,12.30
2017-06-01T07:31:26.299Z,10.66
2017-06-01T07:34:04.369Z,10.72
2017-06-01T07:36:31.354Z,11.62
2017-06-01T07:38:58.556Z,10.78
2017-06-01T07:41:25.595Z,10.86
2017-06-01T07:43:52.550Z,10.64
2017-06-01T07:46:19.454Z,11.40
2017-06-01T07:48:46.279Z,10.54
2017-06-01T07:51:17.677Z,10.48
2017-06-01T07:53:43.840Z,10.84
2017-06-01T07:56:11.528Z,11.84
2017-06-01T07:58:38.584Z,13.30
2017-06-01T08:01:18.166Z,10.36
2017-06-01T08:03:49.408Z,14.98
2017-06-01T08:06:16.128Z,11.00
2017-06-01T08:08:44.556Z,10.20
2017-06-01T08:11:11.471Z,13.96
2017-06-01T08:13:38.397Z,10.60
2017-06-01T08:16:05.249Z,10.34
2017-06-01T08:18:31.350Z,10.80
2017-06-01T08:20:59.381Z,12.80
2017-06-01T08:23:25.452Z,12.28
2017-06-01T08:25:52.293Z,9.12
2017-06-01T08:28:18.499Z,9.98
2017-06-01T08:30:45.523Z,9.98
2017-06-01T08:33:12.178Z,10.30
2017-06-01T08:35:39.661Z,11.24
2017-06-01T08:38:06.595Z,8.74
2017-06-01T08:43:29.577Z,9.72
2017-06-01T08:46:18.066Z,10.22
2017-06-01T08:48:46.125Z,9.68
2017-06-01T08:51:13.141Z,8.44
2017-06-01T08:53:39.977Z,12.92
2017-06-01T08:56:08.361Z,10.86
2017-06-01T08:58:34.566Z,10.66
2017-06-01T09:01:02.254Z,9.34
2017-06-01T09:03:28.602Z,9.92
2017-06-01T09:05:55.377Z,9.76
2017-06-01T09:11:17.172Z,8.70
2017-06-01T09:13:45.819Z,9.58
2017-06-01T09:16:15.581Z,10.84
2017-06-01T09:18:43.087Z,8.90
2017-06-01T09:21:10.133Z,10.80
2017-06-01T09:23:36.821Z,10.64
2017-06-01T09:26:03.643Z,9.56
2017-06-01T09:28:29.740Z,9.02
2017-06-01T09:45:19.050Z,9.72
2017-06-01T09:47:48.349Z,11.84
2017-06-01T09:50:17.656Z,13.02
2017-06-01T09:52:46.049Z,10.08
2017-06-01T09:55:14.778Z,10.04
2017-06-01T09:57:42.444Z,12.80
2017-06-01T10:00:09.857Z,10.68
2017-06-01T10:02:36.139Z,10.76
2017-06-01T10:05:03.026Z,11.50
2017-06-01T10:10:26.530Z,10.66
2017-06-01T10:12:57.491Z,10.64
2017-06-01T10:15:23.745Z,9.66
2017-06-01T10:17:50.794Z,9.94
2017-06-01T10:20:17.697Z,12.02
2017-06-01T10:22:44.942Z,11.94
2017-06-01T10:30:59.936Z,10.98
2017-06-01T10:33:26.929Z,11.26
2017-06-01T10:35:53.803Z,7.74
2017-06-01T10:38:19.922Z,10.58
2017-06-01T10:40:46.026Z,12.68
2017-06-01T10:43:13.508Z,11.78
2017-06-01T10:45:40.820Z,9.82
2017-06-01T10:48:08.260Z,12.92
2017-06-01T10:50:35.317Z,8.98
2017-06-01T10:53:02.964Z,12.62
2017-06-01T10:55:29.004Z,9.62
2017-06-01T10:57:55.490Z,9.22
2017-06-01T11:11:56.036Z,9.52
2017-06-01T11:16:53.793Z,10.98
2017-06-01T11:19:24.359Z,9.60
2017-06-01T11:21:51.567Z,27.40
2017-06-01T11:24:19.973Z,19.90
2017-06-01T11:29:18.479Z,8.44
2017-06-01T11:34:28.817Z,8.14
2017-06-01T11:39:26.308Z,8.36
2017-06-01T11:41:52.615Z,8.06
2017-06-01T11:44:19.488Z,8.66
2017-06-01T11:46:45.717Z,8.12
2017-06-01T11:49:14.608Z,8.58
2017-06-01T11:51:40.708Z,9.90
2017-06-01T11:54:12.552Z,7.76
2017-06-01T11:56:38.688Z,7.14
2017-06-01T11:59:05.659Z,7.28
2017-06-01T12:01:33.801Z,7.18
2017-06-01T12:04:00.034Z,7.48
2017-06-01T12:06:26.169Z,6.54
2017-06-01T12:08:53.037Z,8.88
2017-06-01T12:11:19.226Z,8.20
2017-06-01T12:14:02.771Z,6.54
2017-06-01T12:16:29.786Z,7.36
2017-06-01T12:18:57.528Z,7.68
2017-06-01T12:21:24.936Z,7.40
2017-06-01T12:23:52.607Z,7.42
2017-06-01T12:26:19.430Z,8.80
2017-06-01T12:28:46.383Z,7.70
2017-06-01T12:31:13.148Z,8.04
2017-06-01T12:33:43.788Z,9.90
2017-06-01T12:36:12.052Z,8.18
2017-06-01T12:41:11.172Z,9.74
2017-06-01T12:43:37.927Z,7.34
2017-06-01T12:46:05.530Z,6.64
2017-06-01T12:48:32.753Z,7.26
2017-06-01T12:51:00.093Z,8.94
2017-06-01T12:53:28.437Z,6.54
2017-06-01T12:58:40.195Z,6.18
2017-06-01T13:01:09.280Z,6.52
2017-06-01T13:03:36.996Z,6.34
2017-06-01T13:11:07.947Z,6.20
2017-06-01T13:13:35.451Z,6.82
2017-06-01T13:23:40.310Z,6.36
2017-06-01T13:26:07.493Z,5.22
2017-06-01T13:28:33.784Z,6.82
2017-06-01T13:31:00.733Z,8.14
2017-06-01T13:33:27.525Z,6.88
2017-06-01T13:35:54.406Z,6.42
2017-06-01T13:38:24.634Z,5.54
2017-06-01T13:40:51.468Z,5.34
2017-06-01T13:43:20.789Z,4.72
2017-06-01T13:45:47.680Z,5.04
2017-06-01T13:48:16.888Z,5.66
2017-06-01T13:50:44.377Z,7.06
2017-06-01T13:53:27.895Z,6.14
2017-06-01T13:55:55.515Z,7.74
2017-06-01T13:58:21.858Z,5.30
2017-06-01T14:00:49.056Z,5.64
2017-06-01T14:03:16.695Z,5.82
2017-06-01T14:05:45.344Z,5.90
2017-06-01T14:10:45.427Z,5.26
2017-06-01T14:13:13.872Z,4.94
2017-06-01T14:15:40.817Z,5.86
2017-06-01T14:18:09.685Z,4.90
2017-06-01T14:20:36.779Z,5.06
2017-06-01T14:23:05.268Z,5.52
2017-06-01T14:25:32.945Z,6.24
2017-06-01T14:28:00.448Z,5.82
2017-06-01T14:30:29.266Z,6.24
2017-06-01T14:33:34.604Z,5.80
2017-06-01T14:36:00.830Z,5.70
2017-06-01T14:38:29.102Z,6.16
2017-06-01T14:40:55.949Z,5.88
2017-06-01T14:43:24.325Z,6.68
2017-06-01T14:45:51.474Z,6.88
2017-06-01T14:48:17.700Z,6.36
2017-06-01T14:50:45.577Z,7.80
2017-06-01T14:58:20.714Z,6.34
2017-06-01T15:00:47.854Z,6.70
2017-06-01T15:03:17.044Z,6.52
2017-06-01T15:08:19.578Z,6.50
2017-06-01T15:10:54.733Z,7.72
2017-06-01T15:13:22.952Z,7.46
2017-06-01T15:15:52.530Z,7.28
2017-06-01T15:20:50.164Z,6.50
2017-06-01T15:23:19.258Z,7.18
2017-06-01T15:28:25.337Z,6.56
2017-06-01T15:36:09.601Z,7.80
2017-06-01T15:41:13.822Z,11.06
2017-06-01T15:43:40.662Z,8.54
2017-06-01T15:46:08.302Z,8.60
2017-06-01T15:48:34.569Z,6.72
2017-06-01T15:51:00.657Z,7.70
2017-06-01T15:53:27.434Z,5.84
2017-06-01T15:55:53.687Z,5.52
2017-06-01T15:58:20.104Z,6.60
2017-06-01T16:00:47.753Z,9.56
2017-06-01T16:03:16.360Z,5.56
2017-06-01T16:05:44.911Z,5.40
2017-06-01T16:13:16.951Z,5.36
2017-06-01T16:15:43.168Z,5.80
2017-06-01T16:18:10.930Z,5.96
2017-06-01T16:20:39.491Z,5.80
2017-06-01T16:23:06.446Z,5.88
2017-06-01T16:25:35.018Z,5.02
2017-06-01T16:28:02.286Z,4.84
2017-06-01T16:33:03.473Z,5.28
2017-06-01T16:35:33.421Z,5.16
2017-06-01T16:38:00.391Z,6.88
2017-06-01T16:40:27.646Z,5.86
2017-06-01T16:42:54.718Z,6.78
2017-06-01T16:45:22.525Z,4.94
2017-06-01T16:50:32.886Z,5.16
2017-06-01T16:53:01.919Z,6.62
2017-06-01T16:55:31.536Z,7.24
2017-06-01T16:57:57.931Z,5.20
2017-06-01T17:02:56.561Z,5.54
2017-06-01T17:05:24.845Z,5.30
2017-06-01T17:07:55.766Z,5.02
2017-06-01T17:12:53.567Z,5.54
2017-06-01T17:15:23.856Z,5.18
2017-06-01T17:20:26.242Z,5.52
2017-06-01T17:22:54.034Z,8.08
2017-06-01T17:25:24.292Z,4.60
2017-06-01T17:27:54.525Z,4.56
2017-06-01T17:32:54.511Z,4.94
2017-06-01T17:35:22.929Z,5.48
2017-06-01T17:40:22.605Z,5.40
2017-06-01T17:42:48.993Z,5.10
2017-06-01T17:47:54.228Z,4.90
2017-06-01T17:50:22.716Z,4.76
2017-06-01T17:55:44.161Z,5.20
2017-06-01T18:10:52.624Z,6.92
2017-06-01T18:13:19.653Z,5.78
2017-06-01T18:23:12.749Z,5.28
2017-06-01T18:28:12.246Z,5.90
2017-06-01T18:30:39.577Z,5.98
2017-06-01T18:33:06.539Z,5.48
2017-06-01T18:35:33.968Z,5.82
2017-06-01T18:38:01.038Z,6.24
2017-06-01T18:40:27.896Z,5.70
2017-06-01T18:42:55.028Z,5.30
2017-06-01T18:45:25.530Z,5.84
2017-06-01T18:47:54.266Z,5.84
2017-06-01T18:52:52.049Z,6.72
2017-06-01T18:55:19.341Z,7.24
2017-06-01T18:57:46.719Z,6.82
2017-06-01T19:00:14.092Z,5.74
2017-06-01T19:02:41.530Z,6.76
2017-06-01T19:05:08.813Z,6.52
2017-06-01T19:10:10.176Z,6.10
2017-06-01T19:15:08.975Z,9.94
2017-06-01T19:17:35.884Z,6.84
2017-06-01T19:20:06.662Z,7.98
2017-06-01T19:22:34.197Z,7.84
2017-06-01T19:25:01.690Z,7.94
2017-06-01T19:27:29.692Z,7.48
2017-06-01T19:29:56.198Z,8.58
2017-06-01T19:32:26.147Z,7.12
2017-06-01T19:34:58.464Z,7.68
2017-06-01T19:40:04.419Z,8.52
2017-06-01T19:42:32.514Z,9.70
2017-06-01T19:44:59.255Z,11.00
2017-06-01T19:47:25.958Z,8.38
2017-06-01T19:49:51.935Z,9.24
2017-06-01T19:52:17.997Z,17.96
2017-06-01T19:54:45.754Z,12.36
2017-06-01T19:57:12.531Z,9.76
2017-06-01T19:59:38.531Z,10.32
2017-06-01T20:02:05.251Z,10.56
2017-06-01T20:04:33.791Z,12.46
2017-06-01T20:15:32.194Z,10.84
2017-06-01T20:23:28.585Z,10.06
2017-06-01T20:26:04.068Z,11.54
2017-06-01T20:39:46.863Z,19.04
2017-06-01T20:42:17.046Z,17.08
2017-06-01T20:47:24.096Z,11.12
2017-06-01T20:52:31.682Z,10.92
2017-06-01T21:01:14.876Z,10.42
2017-06-01T21:03:46.184Z,12.46
2017-06-01T21:11:43.836Z,16.60
2017-06-01T21:14:14.488Z,10.90
2017-06-01T21:22:10.985Z,13.82
2017-06-01T21:27:28.221Z,19.90
2017-06-01T21:40:26.053Z,13.26
2017-06-01T21:42:53.959Z,13.86
2017-06-01T21:45:23.747Z,13.30
2017-06-01T21:50:21.871Z,11.36
2017-06-01T22:00:35.255Z,16.36
2017-06-01T22:03:03.594Z,13.22
2017-06-01T22:05:33.885Z,13.94
2017-06-01T22:10:37.351Z,11.68
2017-06-01T22:13:08.268Z,11.32
2017-06-01T22:15:37.796Z,10.76
2017-06-01T22:18:04.618Z,10.10
2017-06-01T22:20:40.684Z,12.48
2017-06-01T22:28:14.840Z,11.70
2017-06-01T22:30:44.987Z,10.54
2017-06-01T22:33:15.581Z,11.36
2017-06-01T22:35:43.066Z,11.98
2017-06-01T22:38:16.979Z,12.74
2017-06-01T22:40:46.633Z,12.00
2017-06-01T22:43:16.126Z,12.70
2017-06-01T22:45:46.621Z,12.14
2017-06-01T22:53:26.274Z,12.44
2017-06-01T22:55:56.353Z,12.24
2017-06-01T22:58:27.229Z,12.36
2017-06-01T23:01:04.548Z,12.12
2017-06-01T23:03:35.086Z,12.04
2017-06-01T23:06:01.873Z,11.22
2017-06-01T23:08:28.617Z,12.76
2017-06-01T23:10:55.400Z,11.92
2017-06-01T23:13:22.214Z,11.64
2017-06-01T23:15:48.985Z,11.86
2017-06-01T23:18:15.823Z,11.92
2017-06-01T23:20:42.631Z,10.74
2017-06-01T23:23:09.451Z,10.50
2017-06-01T23:25:36.207Z,11.44
2017-06-01T23:28:02.933Z,10.56
2017-06-01T23:30:28.994Z,10.26
2017-06-01T23:32:55.809Z,9.96
2017-06-01T23:35:23.273Z,10.88
2017-06-01T23:37:49.404Z,10.48
2017-06-01T23:40:16.189Z,11.12
2017-06-01T23:42:42.950Z,10.78
2017-06-01T23:45:09.792Z,11.40
2017-06-01T23:47:36.680Z,10.42
2017-06-01T23:50:04.236Z,9.70
2017-06-01T23:52:30.941Z,10.62
2017-06-01T23:54:58.785Z,10.10
2017-06-01T23:57:25.493Z,11.28
2017-06-01T23:59:52.222Z,10.88
